sensor_id;sensor_type;location;lat;lon;timestamp;P1;durP1;ratioP1;P2;durP2;ratioP2
32146;SDS011;32190;49.112;8.598;2022-09-03T00:09:02;0.38;;;0.38;;
32146;SDS011;32190;49.112;8.598;2022-09-03T00:15:13;0.65;;;0.35;;
32146;SDS011;32190;49.112;8.598;2022-09-03T00:21:13;0.30;;;0.30;;
32146;SDS011;32190;49.112;8.598;2022-09-03T00:27:09;0.32;;;0.32;;
32146;SDS011;32190;49.112;8.598;2022-09-03T00:33:05;0.43;;;0.43;;
32146;SDS011;32190;49.112;8.598;2022-09-03T00:38:59;0.30;;;0.30;;
32146;SDS011;32190;49.112;8.598;2022-09-03T01:09:37;0.43;;;0.35;;
32146;SDS011;32190;49.112;8.598;2022-09-03T01:15:53;0.43;;;0.43;;
32146;SDS011;32190;49.112;8.598;2022-09-03T01:28:15;0.40;;;0.40;;
32146;SDS011;32190;49.112;8.598;2022-09-03T01:47:32;0.30;;;0.30;;
32146;SDS011;32190;49.112;8.598;2022-09-03T01:59:36;0.28;;;0.28;;
32146;SDS011;32190;49.112;8.598;2022-09-03T02:05:42;0.35;;;0.35;;
32146;SDS011;32190;49.112;8.598;2022-09-03T02:11:33;0.30;;;0.30;;
32146;SDS011;32190;49.112;8.598;2022-09-03T02:17:24;0.40;;;0.40;;
32146;SDS011;32190;49.112;8.598;2022-09-03T02:23:14;1.10;;;0.35;;
32146;SDS011;32190;49.112;8.598;2022-09-03T02:29:06;0.52;;;0.50;;
32146;SDS011;32190;49.112;8.598;2022-09-03T02:34:57;0.52;;;0.40;;
32146;SDS011;32190;49.112;8.598;2022-09-03T02:40:47;0.30;;;0.30;;
32146;SDS011;32190;49.112;8.598;2022-09-03T02:46:39;0.35;;;0.35;;
32146;SDS011;32190;49.112;8.598;2022-09-03T02:58:26;0.30;;;0.30;;
32146;SDS011;32190;49.112;8.598;2022-09-03T03:04:17;0.30;;;0.30;;
32146;SDS011;32190;49.112;8.598;2022-09-03T03:10:08;0.40;;;0.40;;
32146;SDS011;32190;49.112;8.598;2022-09-03T03:15:59;0.40;;;0.40;;
32146;SDS011;32190;49.112;8.598;2022-09-03T03:21:51;0.90;;;0.57;;
32146;SDS011;32190;49.112;8.598;2022-09-03T03:27:42;0.40;;;0.40;;
32146;SDS011;32190;49.112;8.598;2022-09-03T03:33:33;0.50;;;0.40;;
32146;SDS011;32190;49.112;8.598;2022-09-03T03:39:24;0.20;;;0.20;;
32146;SDS011;32190;49.112;8.598;2022-09-03T03:45:14;1.13;;;0.60;;
32146;SDS011;32190;49.112;8.598;2022-09-03T03:51:06;0.52;;;0.40;;
32146;SDS011;32190;49.112;8.598;2022-09-03T03:56:58;0.30;;;0.30;;
32146;SDS011;32190;49.112;8.598;2022-09-03T04:02:48;0.30;;;0.30;;
32146;SDS011;32190;49.112;8.598;2022-09-03T04:08:40;0.40;;;0.40;;
32146;SDS011;32190;49.112;8.598;2022-09-03T04:14:31;0.30;;;0.30;;
32146;SDS011;32190;49.112;8.598;2022-09-03T04:20:22;0.30;;;0.30;;
32146;SDS011;32190;49.112;8.598;2022-09-03T04:26:13;0.40;;;0.40;;
32146;SDS011;32190;49.112;8.598;2022-09-03T04:32:05;0.43;;;0.30;;
32146;SDS011;32190;49.112;8.598;2022-09-03T04:38:14;0.45;;;0.30;;
32146;SDS011;32190;49.112;8.598;2022-09-03T04:44:06;2.60;;;0.40;;
32146;SDS011;32190;49.112;8.598;2022-09-03T04:49:56;0.30;;;0.30;;
32146;SDS011;32190;49.112;8.598;2022-09-03T04:55:47;0.70;;;0.70;;
32146;SDS011;32190;49.112;8.598;2022-09-03T05:01:38;0.30;;;0.30;;
32146;SDS011;32190;49.112;8.598;2022-09-03T05:07:29;1.55;;;0.30;;
32146;SDS011;32190;49.112;8.598;2022-09-03T05:13:27;0.40;;;0.40;;
32146;SDS011;32190;49.112;8.598;2022-09-03T05:19:17;0.25;;;0.25;;
32146;SDS011;32190;49.112;8.598;2022-09-03T05:25:08;0.60;;;0.40;;
32146;SDS011;32190;49.112;8.598;2022-09-03T05:30:59;0.28;;;0.28;;
32146;SDS011;32190;49.112;8.598;2022-09-03T05:36:51;0.30;;;0.30;;
32146;SDS011;32190;49.112;8.598;2022-09-03T05:42:42;0.30;;;0.30;;
32146;SDS011;32190;49.112;8.598;2022-09-03T05:48:33;0.75;;;0.40;;
32146;SDS011;32190;49.112;8.598;2022-09-03T05:54:24;0.40;;;0.40;;
32146;SDS011;32190;49.112;8.598;2022-09-03T06:00:15;0.30;;;0.30;;
32146;SDS011;32190;49.112;8.598;2022-09-03T06:06:08;0.35;;;0.30;;
32146;SDS011;32190;49.112;8.598;2022-09-03T06:12:00;1.17;;;0.32;;
32146;SDS011;32190;49.112;8.598;2022-09-03T06:17:50;0.45;;;0.30;;
32146;SDS011;32190;49.112;8.598;2022-09-03T06:23:41;0.20;;;0.20;;
32146;SDS011;32190;49.112;8.598;2022-09-03T06:29:31;0.60;;;0.40;;
32146;SDS011;32190;49.112;8.598;2022-09-03T06:35:24;0.30;;;0.30;;
32146;SDS011;32190;49.112;8.598;2022-09-03T06:41:15;0.40;;;0.40;;
32146;SDS011;32190;49.112;8.598;2022-09-03T06:47:13;0.40;;;0.40;;
32146;SDS011;32190;49.112;8.598;2022-09-03T06:53:04;0.47;;;0.40;;
32146;SDS011;32190;49.112;8.598;2022-09-03T06:58:55;0.25;;;0.25;;
32146;SDS011;32190;49.112;8.598;2022-09-03T07:04:47;0.30;;;0.30;;
32146;SDS011;32190;49.112;8.598;2022-09-03T07:10:38;0.40;;;0.40;;
32146;SDS011;32190;49.112;8.598;2022-09-03T07:16:33;0.57;;;0.35;;
32146;SDS011;32190;49.112;8.598;2022-09-03T07:22:25;0.80;;;0.38;;
32146;SDS011;32190;49.112;8.598;2022-09-03T07:28:15;0.30;;;0.30;;
32146;SDS011;32190;49.112;8.598;2022-09-03T07:34:07;0.30;;;0.30;;
32146;SDS011;32190;49.112;8.598;2022-09-03T07:39:59;0.55;;;0.55;;
32146;SDS011;32190;49.112;8.598;2022-09-03T07:45:50;0.60;;;0.60;;
32146;SDS011;32190;49.112;8.598;2022-09-03T07:51:41;0.47;;;0.40;;
32146;SDS011;32190;49.112;8.598;2022-09-03T07:57:31;1.13;;;0.57;;
32146;SDS011;32190;49.112;8.598;2022-09-03T08:03:22;0.68;;;0.40;;
32146;SDS011;32190;49.112;8.598;2022-09-03T08:09:12;0.30;;;0.30;;
32146;SDS011;32190;49.112;8.598;2022-09-03T08:15:03;0.35;;;0.35;;
32146;SDS011;32190;49.112;8.598;2022-09-03T08:20:54;1.20;;;0.50;;
32146;SDS011;32190;49.112;8.598;2022-09-03T08:26:48;1.48;;;0.30;;
32146;SDS011;32190;49.112;8.598;2022-09-03T08:32:39;0.60;;;0.55;;
32146;SDS011;32190;49.112;8.598;2022-09-03T08:38:30;2.08;;;0.60;;
32146;SDS011;32190;49.112;8.598;2022-09-03T08:44:29;0.50;;;0.50;;
32146;SDS011;32190;49.112;8.598;2022-09-03T08:50:33;0.47;;;0.47;;
32146;SDS011;32190;49.112;8.598;2022-09-03T08:56:29;0.50;;;0.50;;
32146;SDS011;32190;49.112;8.598;2022-09-03T09:02:25;1.20;;;0.52;;
32146;SDS011;32190;49.112;8.598;2022-09-03T09:14:51;0.80;;;0.80;;
32146;SDS011;32190;49.112;8.598;2022-09-03T09:26:59;0.65;;;0.57;;
32146;SDS011;32190;49.112;8.598;2022-09-03T09:32:52;2.47;;;0.73;;
32146;SDS011;32190;49.112;8.598;2022-09-03T09:38:45;1.00;;;0.93;;
32146;SDS011;32190;49.112;8.598;2022-09-03T09:44:37;1.45;;;1.00;;
32146;SDS011;32190;49.112;8.598;2022-09-03T09:50:29;1.05;;;0.85;;
32146;SDS011;32190;49.112;8.598;2022-09-03T09:56:24;0.65;;;0.65;;
32146;SDS011;32190;49.112;8.598;2022-09-03T10:02:19;0.70;;;0.57;;
32146;SDS011;32190;49.112;8.598;2022-09-03T10:08:18;1.23;;;1.05;;
32146;SDS011;32190;49.112;8.598;2022-09-03T10:14:24;4.43;;;1.17;;
32146;SDS011;32190;49.112;8.598;2022-09-03T10:20:25;2.65;;;1.20;;
32146;SDS011;32190;49.112;8.598;2022-09-03T10:26:36;1.63;;;1.20;;
32146;SDS011;32190;49.112;8.598;2022-09-03T10:32:39;2.15;;;1.33;;
32146;SDS011;32190;49.112;8.598;2022-09-03T10:38:53;0.93;;;0.93;;
32146;SDS011;32190;49.112;8.598;2022-09-03T10:57:55;1.70;;;0.95;;
32146;SDS011;32190;49.112;8.598;2022-09-03T11:09:54;1.88;;;1.48;;
32146;SDS011;32190;49.112;8.598;2022-09-03T11:15:54;1.80;;;1.17;;
32146;SDS011;32190;49.112;8.598;2022-09-03T11:21:45;1.60;;;1.42;;
32146;SDS011;32190;49.112;8.598;2022-09-03T11:33:31;1.40;;;1.30;;
32146;SDS011;32190;49.112;8.598;2022-09-03T11:39:37;1.05;;;1.02;;
32146;SDS011;32190;49.112;8.598;2022-09-03T11:51:30;1.02;;;0.98;;
32146;SDS011;32190;49.112;8.598;2022-09-03T11:57:25;1.10;;;1.02;;
32146;SDS011;32190;49.112;8.598;2022-09-03T12:03:22;1.88;;;1.38;;
32146;SDS011;32190;49.112;8.598;2022-09-03T12:09:20;2.35;;;1.70;;
32146;SDS011;32190;49.112;8.598;2022-09-03T12:21:47;1.25;;;1.20;;
32146;SDS011;32190;49.112;8.598;2022-09-03T12:27:38;1.58;;;1.48;;
32146;SDS011;32190;49.112;8.598;2022-09-03T12:33:32;1.35;;;1.27;;
32146;SDS011;32190;49.112;8.598;2022-09-03T12:39:25;0.95;;;0.95;;
32146;SDS011;32190;49.112;8.598;2022-09-03T12:45:18;1.27;;;1.27;;
32146;SDS011;32190;49.112;8.598;2022-09-03T12:51:16;0.60;;;0.60;;
32146;SDS011;32190;49.112;8.598;2022-09-03T12:57:07;1.15;;;0.82;;
32146;SDS011;32190;49.112;8.598;2022-09-03T13:02:59;0.98;;;0.98;;
32146;SDS011;32190;49.112;8.598;2022-09-03T13:08:54;0.77;;;0.77;;
32146;SDS011;32190;49.112;8.598;2022-09-03T13:14:47;1.17;;;0.80;;
32146;SDS011;32190;49.112;8.598;2022-09-03T13:20:47;0.90;;;0.88;;
32146;SDS011;32190;49.112;8.598;2022-09-03T13:39:06;0.73;;;0.63;;
32146;SDS011;32190;49.112;8.598;2022-09-03T13:45:15;0.85;;;0.80;;
32146;SDS011;32190;49.112;8.598;2022-09-03T13:51:17;0.50;;;0.50;;
32146;SDS011;32190;49.112;8.598;2022-09-03T14:09:50;0.90;;;0.90;;
32146;SDS011;32190;49.112;8.598;2022-09-03T14:16:01;0.70;;;0.70;;
32146;SDS011;32190;49.112;8.598;2022-09-03T14:22:10;0.63;;;0.63;;
32146;SDS011;32190;49.112;8.598;2022-09-03T14:40:46;0.80;;;0.80;;
32146;SDS011;32190;49.112;8.598;2022-09-03T15:30:15;1.10;;;1.10;;
32146;SDS011;32190;49.112;8.598;2022-09-03T15:36:11;0.75;;;0.75;;
32146;SDS011;32190;49.112;8.598;2022-09-03T15:42:17;0.70;;;0.70;;
32146;SDS011;32190;49.112;8.598;2022-09-03T15:48:19;0.50;;;0.50;;
32146;SDS011;32190;49.112;8.598;2022-09-03T15:54:22;0.65;;;0.65;;
32146;SDS011;32190;49.112;8.598;2022-09-03T16:00:31;0.80;;;0.80;;
32146;SDS011;32190;49.112;8.598;2022-09-03T16:06:32;0.80;;;0.80;;
32146;SDS011;32190;49.112;8.598;2022-09-03T16:12:35;0.45;;;0.45;;
32146;SDS011;32190;49.112;8.598;2022-09-03T16:19:04;0.60;;;0.60;;
32146;SDS011;32190;49.112;8.598;2022-09-03T16:25:11;0.88;;;0.88;;
32146;SDS011;32190;49.112;8.598;2022-09-03T17:02:29;0.20;;;0.20;;
32146;SDS011;32190;49.112;8.598;2022-09-03T17:14:39;0.30;;;0.30;;
32146;SDS011;32190;49.112;8.598;2022-09-03T17:26:36;1.40;;;0.20;;
32146;SDS011;32190;49.112;8.598;2022-09-03T17:51:25;0.63;;;0.30;;
32146;SDS011;32190;49.112;8.598;2022-09-03T17:57:31;0.20;;;0.20;;
32146;SDS011;32190;49.112;8.598;2022-09-03T18:03:49;0.22;;;0.22;;
32146;SDS011;32190;49.112;8.598;2022-09-03T18:10:06;0.20;;;0.20;;
32146;SDS011;32190;49.112;8.598;2022-09-03T18:16:06;0.30;;;0.30;;
32146;SDS011;32190;49.112;8.598;2022-09-03T18:22:04;1.92;;;0.77;;
32146;SDS011;32190;49.112;8.598;2022-09-03T18:28:15;0.70;;;0.70;;
32146;SDS011;32190;49.112;8.598;2022-09-03T18:34:29;0.68;;;0.68;;
32146;SDS011;32190;49.112;8.598;2022-09-03T18:40:58;0.50;;;0.50;;
32146;SDS011;32190;49.112;8.598;2022-09-03T19:00:22;0.43;;;0.30;;
32146;SDS011;32190;49.112;8.598;2022-09-03T19:06:38;0.30;;;0.30;;
32146;SDS011;32190;49.112;8.598;2022-09-03T19:25:46;0.50;;;0.50;;
32146;SDS011;32190;49.112;8.598;2022-09-03T19:31:59;0.55;;;0.55;;
32146;SDS011;32190;49.112;8.598;2022-09-03T19:38:25;0.40;;;0.40;;
32146;SDS011;32190;49.112;8.598;2022-09-03T19:44:58;0.50;;;0.50;;
32146;SDS011;32190;49.112;8.598;2022-09-03T19:51:30;0.50;;;0.50;;
32146;SDS011;32190;49.112;8.598;2022-09-03T19:57:49;0.50;;;0.50;;
32146;SDS011;32190;49.112;8.598;2022-09-03T20:04:12;0.30;;;0.30;;
32146;SDS011;32190;49.112;8.598;2022-09-03T20:10:23;0.32;;;0.32;;
32146;SDS011;32190;49.112;8.598;2022-09-03T20:16:23;0.40;;;0.40;;
32146;SDS011;32190;49.112;8.598;2022-09-03T20:22:26;0.68;;;0.40;;
32146;SDS011;32190;49.112;8.598;2022-09-03T20:42:08;0.35;;;0.35;;
32146;SDS011;32190;49.112;8.598;2022-09-03T20:53:57;0.63;;;0.30;;
32146;SDS011;32190;49.112;8.598;2022-09-03T21:00:10;0.50;;;0.50;;
32146;SDS011;32190;49.112;8.598;2022-09-03T21:06:43;0.57;;;0.30;;
32146;SDS011;32190;49.112;8.598;2022-09-03T21:12:51;0.40;;;0.40;;
32146;SDS011;32190;49.112;8.598;2022-09-03T21:19:00;0.75;;;0.40;;
32146;SDS011;32190;49.112;8.598;2022-09-03T21:25:04;1.15;;;0.47;;
32146;SDS011;32190;49.112;8.598;2022-09-03T21:31:00;0.38;;;0.32;;
32146;SDS011;32190;49.112;8.598;2022-09-03T21:36:56;0.45;;;0.45;;
32146;SDS011;32190;49.112;8.598;2022-09-03T21:43:00;2.00;;;0.80;;
32146;SDS011;32190;49.112;8.598;2022-09-03T21:48:57;0.60;;;0.60;;
32146;SDS011;32190;49.112;8.598;2022-09-03T21:54:52;1.65;;;0.50;;
32146;SDS011;32190;49.112;8.598;2022-09-03T22:00:42;0.70;;;0.70;;
32146;SDS011;32190;49.112;8.598;2022-09-03T22:19:20;0.30;;;0.30;;
32146;SDS011;32190;49.112;8.598;2022-09-03T22:25:13;1.02;;;1.02;;
32146;SDS011;32190;49.112;8.598;2022-09-03T22:56:29;0.57;;;0.55;;
32146;SDS011;32190;49.112;8.598;2022-09-03T23:02:25;0.68;;;0.68;;
32146;SDS011;32190;49.112;8.598;2022-09-03T23:08:37;0.95;;;0.75;;
32146;SDS011;32190;49.112;8.598;2022-09-03T23:14:37;0.88;;;0.88;;
32146;SDS011;32190;49.112;8.598;2022-09-03T23:20:37;1.13;;;0.70;;
32146;SDS011;32190;49.112;8.598;2022-09-03T23:26:43;0.82;;;0.82;;
32146;SDS011;32190;49.112;8.598;2022-09-03T23:32:36;1.42;;;0.90;;
32146;SDS011;32190;49.112;8.598;2022-09-03T23:38:34;0.57;;;0.57;;
32146;SDS011;32190;49.112;8.598;2022-09-03T23:57:11;0.80;;;0.80;;
